sensor_id;sensor_type;location;lat;lon;timestamp;pressure;altitude;pressure_sealevel;temperature;humidity
75747;BME280;64363;52.198;21.020;2023-04-15T02:42:28;99587.28;;;10.69;84.41
75747;BME280;64363;52.198;21.020;2023-04-15T02:44:55;99591.56;;;10.73;84.85
75747;BME280;64363;52.198;21.020;2023-04-15T02:47:20;99588.84;;;10.75;84.49
75747;BME280;64363;52.198;21.020;2023-04-15T02:49:47;99586.06;;;10.76;82.97
75747;BME280;64363;52.198;21.020;2023-04-15T02:52:12;99586.16;;;10.75;83.57
75747;BME280;64363;52.198;21.020;2023-04-15T02:54:38;99587.25;;;10.71;84.69
75747;BME280;64363;52.198;21.020;2023-04-15T02:57:04;99586.81;;;10.60;84.08
75747;BME280;64363;52.198;21.020;2023-04-15T02:59:31;99584.16;;;10.60;84.78
75747;BME280;64363;52.198;21.020;2023-04-15T03:05:10;99596.63;;;10.59;85.03
75747;BME280;64363;52.198;21.020;2023-04-15T03:07:36;99586.72;;;10.63;85.41
75747;BME280;64363;52.198;21.020;2023-04-15T03:10:02;99579.91;;;10.56;84.16
75747;BME280;64363;52.198;21.020;2023-04-15T03:12:28;99590.31;;;10.42;84.79
75747;BME280;64363;52.198;21.020;2023-04-15T03:14:54;99584.31;;;10.57;84.18
75747;BME280;64363;52.198;21.020;2023-04-15T03:17:20;99583.81;;;10.47;84.54
75747;BME280;64363;52.198;21.020;2023-04-15T03:19:46;99592.44;;;10.54;85.08
75747;BME280;64363;52.198;21.020;2023-04-15T03:22:12;99588.09;;;10.51;84.47
75747;BME280;64363;52.198;21.020;2023-04-15T03:24:38;99583.38;;;10.58;84.55
75747;BME280;64363;52.198;21.020;2023-04-15T03:27:03;99595.63;;;10.62;84.06
75747;BME280;64363;52.198;21.020;2023-04-15T03:29:30;99585.22;;;10.56;84.19
75747;BME280;64363;52.198;21.020;2023-04-15T03:31:56;99590.97;;;10.67;84.70
75747;BME280;64363;52.198;21.020;2023-04-15T03:34:22;99584.78;;;10.66;84.46
75747;BME280;64363;52.198;21.020;2023-04-15T03:36:48;99590.88;;;10.68;84.04
75747;BME280;64363;52.198;21.020;2023-04-15T03:39:14;99583.56;;;10.73;84.06
75747;BME280;64363;52.198;21.020;2023-04-15T03:41:39;99589.75;;;10.74;84.56
75747;BME280;64363;52.198;21.020;2023-04-15T03:44:05;99596.06;;;10.71;85.03
75747;BME280;64363;52.198;21.020;2023-04-15T03:46:31;99594.06;;;10.76;83.98
75747;BME280;64363;52.198;21.020;2023-04-15T03:48:57;99585.41;;;10.71;83.91
75747;BME280;64363;52.198;21.020;2023-04-15T03:51:23;99589.03;;;10.70;84.14
75747;BME280;64363;52.198;21.020;2023-04-15T03:53:49;99597.13;;;10.67;84.23
75747;BME280;64363;52.198;21.020;2023-04-15T03:56:14;99597.81;;;10.72;84.04
75747;BME280;64363;52.198;21.020;2023-04-15T03:58:40;99596.84;;;10.75;83.98
75747;BME280;64363;52.198;21.020;2023-04-15T04:01:06;99601.16;;;10.77;83.90
75747;BME280;64363;52.198;21.020;2023-04-15T04:03:32;99605.09;;;10.69;83.95
75747;BME280;64363;52.198;21.020;2023-04-15T04:05:57;99601.50;;;10.70;83.74
75747;BME280;64363;52.198;21.020;2023-04-15T04:08:23;99599.09;;;10.64;84.06
75747;BME280;64363;52.198;21.020;2023-04-15T04:10:49;99598.09;;;10.66;85.08
75747;BME280;64363;52.198;21.020;2023-04-15T04:13:15;99596.16;;;10.70;84.47
75747;BME280;64363;52.198;21.020;2023-04-15T04:15:40;99599.16;;;10.62;84.80
75747;BME280;64363;52.198;21.020;2023-04-15T04:18:06;99603.69;;;10.60;85.75
75747;BME280;64363;52.198;21.020;2023-04-15T04:20:32;99606.97;;;10.67;85.94
75747;BME280;64363;52.198;21.020;2023-04-15T04:22:58;99604.16;;;10.70;85.01
75747;BME280;64363;52.198;21.020;2023-04-15T04:25:24;99603.16;;;10.72;84.55
75747;BME280;64363;52.198;21.020;2023-04-15T04:27:50;99604.00;;;10.73;85.34
75747;BME280;64363;52.198;21.020;2023-04-15T04:30:16;99600.97;;;10.62;86.36
75747;BME280;64363;52.198;21.020;2023-04-15T04:32:42;99598.97;;;10.67;85.68
75747;BME280;64363;52.198;21.020;2023-04-15T04:35:08;99601.03;;;10.60;85.97
75747;BME280;64363;52.198;21.020;2023-04-15T04:37:34;99597.56;;;10.58;86.80
75747;BME280;64363;52.198;21.020;2023-04-15T04:40:00;99600.81;;;10.65;85.34
75747;BME280;64363;52.198;21.020;2023-04-15T04:42:26;99600.69;;;10.68;85.94
75747;BME280;64363;52.198;21.020;2023-04-15T04:44:51;99599.91;;;10.66;85.16
75747;BME280;64363;52.198;21.020;2023-04-15T04:47:18;99595.50;;;10.65;85.19
75747;BME280;64363;52.198;21.020;2023-04-15T04:49:43;99602.41;;;10.69;85.60
75747;BME280;64363;52.198;21.020;2023-04-15T04:52:09;99599.91;;;10.66;86.62
75747;BME280;64363;52.198;21.020;2023-04-15T04:54:35;99594.47;;;10.67;85.85
75747;BME280;64363;52.198;21.020;2023-04-15T04:57:01;99598.22;;;10.63;85.92
75747;BME280;64363;52.198;21.020;2023-04-15T04:59:27;99606.00;;;10.68;86.18
75747;BME280;64363;52.198;21.020;2023-04-15T05:01:53;99601.41;;;10.51;85.87
75747;BME280;64363;52.198;21.020;2023-04-15T05:04:18;99606.34;;;10.60;85.72
75747;BME280;64363;52.198;21.020;2023-04-15T05:06:44;99600.75;;;10.66;85.33
75747;BME280;64363;52.198;21.020;2023-04-15T05:09:10;99605.22;;;10.66;85.87
75747;BME280;64363;52.198;21.020;2023-04-15T05:11:36;99598.31;;;10.62;86.44
75747;BME280;64363;52.198;21.020;2023-04-15T05:14:01;99600.69;;;10.68;85.87
75747;BME280;64363;52.198;21.020;2023-04-15T05:16:27;99609.50;;;10.70;85.70
75747;BME280;64363;52.198;21.020;2023-04-15T05:18:52;99603.44;;;10.66;86.12
75747;BME280;64363;52.198;21.020;2023-04-15T05:21:19;99602.97;;;10.57;87.00
75747;BME280;64363;52.198;21.020;2023-04-15T05:23:45;99606.44;;;10.59;87.52
75747;BME280;64363;52.198;21.020;2023-04-15T05:26:11;99607.03;;;10.65;86.92
75747;BME280;64363;52.198;21.020;2023-04-15T05:28:36;99604.16;;;10.70;86.41
75747;BME280;64363;52.198;21.020;2023-04-15T05:31:02;99607.56;;;10.73;86.35
75747;BME280;64363;52.198;21.020;2023-04-15T05:33:28;99594.38;;;10.70;86.33
75747;BME280;64363;52.198;21.020;2023-04-15T05:35:54;99599.81;;;10.67;86.63
75747;BME280;64363;52.198;21.020;2023-04-15T05:38:20;99610.06;;;10.76;86.42
75747;BME280;64363;52.198;21.020;2023-04-15T05:40:45;99606.16;;;10.65;86.94
75747;BME280;64363;52.198;21.020;2023-04-15T05:43:11;99611.63;;;10.62;87.33
75747;BME280;64363;52.198;21.020;2023-04-15T05:45:37;99609.03;;;10.60;87.22
75747;BME280;64363;52.198;21.020;2023-04-15T05:48:03;99609.84;;;10.62;87.45
75747;BME280;64363;52.198;21.020;2023-04-15T05:50:28;99612.34;;;10.65;86.56
75747;BME280;64363;52.198;21.020;2023-04-15T05:52:54;99609.88;;;10.61;86.80
75747;BME280;64363;52.198;21.020;2023-04-15T05:55:20;99612.31;;;10.67;86.89
75747;BME280;64363;52.198;21.020;2023-04-15T05:57:46;99610.41;;;10.69;86.73
75747;BME280;64363;52.198;21.020;2023-04-15T06:00:13;99614.69;;;10.73;86.37
75747;BME280;64363;52.198;21.020;2023-04-15T06:02:38;99601.69;;;10.65;87.74
75747;BME280;64363;52.198;21.020;2023-04-15T06:05:05;99609.09;;;10.59;87.69
75747;BME280;64363;52.198;21.020;2023-04-15T06:07:35;99620.56;;;10.61;87.69
75747;BME280;64363;52.198;21.020;2023-04-15T06:10:02;99616.69;;;10.68;87.94
75747;BME280;64363;52.198;21.020;2023-04-15T06:12:28;99620.00;;;10.73;86.83
75747;BME280;64363;52.198;21.020;2023-04-15T06:14:54;99625.50;;;10.70;87.60
75747;BME280;64363;52.198;21.020;2023-04-15T06:17:20;99619.88;;;10.76;86.64
75747;BME280;64363;52.198;21.020;2023-04-15T06:19:45;99628.88;;;10.73;86.67
75747;BME280;64363;52.198;21.020;2023-04-15T06:22:11;99622.53;;;10.76;86.51
75747;BME280;64363;52.198;21.020;2023-04-15T06:24:37;99626.69;;;10.83;86.58
75747;BME280;64363;52.198;21.020;2023-04-15T06:27:03;99625.94;;;10.79;86.61
75747;BME280;64363;52.198;21.020;2023-04-15T06:29:28;99626.88;;;10.78;86.17
75747;BME280;64363;52.198;21.020;2023-04-15T06:31:54;99630.41;;;10.79;86.38
75747;BME280;64363;52.198;21.020;2023-04-15T06:34:21;99636.22;;;10.68;88.02
75747;BME280;64363;52.198;21.020;2023-04-15T06:36:47;99633.50;;;10.70;87.02
75747;BME280;64363;52.198;21.020;2023-04-15T06:39:13;99631.59;;;10.72;86.20
75747;BME280;64363;52.198;21.020;2023-04-15T06:41:38;99644.16;;;10.70;87.69
75747;BME280;64363;52.198;21.020;2023-04-15T06:44:05;99643.09;;;10.74;86.57
75747;BME280;64363;52.198;21.020;2023-04-15T06:46:31;99650.34;;;10.70;87.52
75747;BME280;64363;52.198;21.020;2023-04-15T06:48:57;99642.22;;;10.73;86.90
75747;BME280;64363;52.198;21.020;2023-04-15T06:51:22;99645.34;;;10.63;87.08
75747;BME280;64363;52.198;21.020;2023-04-15T06:53:48;99644.28;;;10.67;87.30
75747;BME280;64363;52.198;21.020;2023-04-15T06:56:14;99650.94;;;10.77;86.64
75747;BME280;64363;52.198;21.020;2023-04-15T06:58:40;99654.72;;;10.71;87.16
75747;BME280;64363;52.198;21.020;2023-04-15T07:01:05;99650.94;;;10.77;87.28
75747;BME280;64363;52.198;21.020;2023-04-15T07:03:32;99649.53;;;10.68;87.69
75747;BME280;64363;52.198;21.020;2023-04-15T07:05:57;99651.81;;;10.77;87.20
75747;BME280;64363;52.198;21.020;2023-04-15T07:08:23;99652.34;;;10.86;86.87
75747;BME280;64363;52.198;21.020;2023-04-15T07:10:49;99655.19;;;10.81;86.81
75747;BME280;64363;52.198;21.020;2023-04-15T07:13:16;99664.84;;;10.84;87.07
75747;BME280;64363;52.198;21.020;2023-04-15T07:15:41;99661.66;;;10.75;87.92
75747;BME280;64363;52.198;21.020;2023-04-15T07:18:07;99660.53;;;10.81;86.70
75747;BME280;64363;52.198;21.020;2023-04-15T07:20:34;99669.22;;;10.86;87.17
75747;BME280;64363;52.198;21.020;2023-04-15T07:22:59;99664.81;;;10.85;87.28
75747;BME280;64363;52.198;21.020;2023-04-15T07:25:25;99663.69;;;10.91;87.86
75747;BME280;64363;52.198;21.020;2023-04-15T07:27:52;99670.19;;;10.84;87.71
75747;BME280;64363;52.198;21.020;2023-04-15T07:30:18;99672.66;;;10.88;86.94
75747;BME280;64363;52.198;21.020;2023-04-15T07:32:44;99664.66;;;10.88;87.14
75747;BME280;64363;52.198;21.020;2023-04-15T07:35:10;99668.00;;;10.93;87.63
75747;BME280;64363;52.198;21.020;2023-04-15T07:37:36;99668.06;;;10.92;86.26
75747;BME280;64363;52.198;21.020;2023-04-15T07:40:02;99668.94;;;10.92;86.12
75747;BME280;64363;52.198;21.020;2023-04-15T07:42:29;99657.84;;;11.01;86.18
75747;BME280;64363;52.198;21.020;2023-04-15T07:44:55;99661.59;;;10.97;86.91
75747;BME280;64363;52.198;21.020;2023-04-15T07:47:21;99658.16;;;10.95;86.13
75747;BME280;64363;52.198;21.020;2023-04-15T07:49:47;99658.53;;;10.86;86.80
75747;BME280;64363;52.198;21.020;2023-04-15T07:52:12;99659.31;;;10.88;86.81
75747;BME280;64363;52.198;21.020;2023-04-15T07:54:38;99662.53;;;10.96;86.33
75747;BME280;64363;52.198;21.020;2023-04-15T07:57:04;99654.00;;;10.88;86.36
75747;BME280;64363;52.198;21.020;2023-04-15T07:59:29;99666.41;;;10.89;86.63
75747;BME280;64363;52.198;21.020;2023-04-15T08:01:58;99665.28;;;10.95;86.04
75747;BME280;64363;52.198;21.020;2023-04-15T08:04:24;99663.19;;;11.01;85.51
75747;BME280;64363;52.198;21.020;2023-04-15T08:06:49;99658.06;;;10.97;85.92
75747;BME280;64363;52.198;21.020;2023-04-15T08:09:16;99654.53;;;10.96;86.27
75747;BME280;64363;52.198;21.020;2023-04-15T08:11:42;99664.25;;;10.97;87.37
75747;BME280;64363;52.198;21.020;2023-04-15T08:14:08;99656.97;;;11.01;87.33
75747;BME280;64363;52.198;21.020;2023-04-15T08:16:34;99657.66;;;11.06;86.13
75747;BME280;64363;52.198;21.020;2023-04-15T08:19:00;99658.56;;;11.05;87.18
75747;BME280;64363;52.198;21.020;2023-04-15T08:21:26;99658.78;;;11.00;85.93
75747;BME280;64363;52.198;21.020;2023-04-15T08:23:52;99663.72;;;11.09;86.14
75747;BME280;64363;52.198;21.020;2023-04-15T08:26:19;99660.75;;;11.15;86.14
75747;BME280;64363;52.198;21.020;2023-04-15T08:28:46;99667.41;;;11.25;86.15
75747;BME280;64363;52.198;21.020;2023-04-15T08:31:16;99663.69;;;11.30;86.32
75747;BME280;64363;52.198;21.020;2023-04-15T08:33:42;99660.34;;;11.24;86.34
75747;BME280;64363;52.198;21.020;2023-04-15T08:36:09;99669.38;;;11.41;85.66
75747;BME280;64363;52.198;21.020;2023-04-15T08:38:34;99670.19;;;11.43;85.65
75747;BME280;64363;52.198;21.020;2023-04-15T08:41:05;99663.16;;;11.40;85.23
75747;BME280;64363;52.198;21.020;2023-04-15T08:43:34;99668.38;;;11.43;84.47
75747;BME280;64363;52.198;21.020;2023-04-15T08:46:06;99668.38;;;11.43;85.05
75747;BME280;64363;52.198;21.020;2023-04-15T08:48:35;99670.81;;;11.48;85.09
75747;BME280;64363;52.198;21.020;2023-04-15T08:51:03;99672.03;;;11.41;85.75
75747;BME280;64363;52.198;21.020;2023-04-15T08:53:29;99677.25;;;11.44;86.13
75747;BME280;64363;52.198;21.020;2023-04-15T08:55:56;99666.84;;;11.56;85.80
75747;BME280;64363;52.198;21.020;2023-04-15T08:58:24;99672.19;;;11.38;85.21
75747;BME280;64363;52.198;21.020;2023-04-15T09:00:50;99673.22;;;11.54;85.86
75747;BME280;64363;52.198;21.020;2023-04-15T09:03:16;99667.00;;;11.53;85.43
75747;BME280;64363;52.198;21.020;2023-04-15T09:05:42;99676.09;;;11.68;85.10
75747;BME280;64363;52.198;21.020;2023-04-15T09:08:08;99673.25;;;11.72;84.15
75747;BME280;64363;52.198;21.020;2023-04-15T09:10:35;99673.97;;;11.76;84.07
75747;BME280;64363;52.198;21.020;2023-04-15T09:13:01;99669.69;;;11.72;85.36
75747;BME280;64363;52.198;21.020;2023-04-15T09:15:27;99671.22;;;11.59;85.05
75747;BME280;64363;52.198;21.020;2023-04-15T09:17:55;99674.22;;;11.70;85.59
75747;BME280;64363;52.198;21.020;2023-04-15T09:20:21;99669.16;;;11.64;84.45
75747;BME280;64363;52.198;21.020;2023-04-15T09:22:48;99675.09;;;11.70;84.19
75747;BME280;64363;52.198;21.020;2023-04-15T09:27:49;99679.56;;;11.70;85.60
75747;BME280;64363;52.198;21.020;2023-04-15T09:30:15;99672.91;;;11.60;85.89
75747;BME280;64363;52.198;21.020;2023-04-15T09:32:52;99681.72;;;11.62;85.92
75747;BME280;64363;52.198;21.020;2023-04-15T09:35:19;99676.09;;;11.68;85.36
75747;BME280;64363;52.198;21.020;2023-04-15T09:37:45;99677.66;;;11.73;85.55
75747;BME280;64363;52.198;21.020;2023-04-15T09:40:12;99680.94;;;11.60;85.67
75747;BME280;64363;52.198;21.020;2023-04-15T09:42:56;99681.25;;;11.72;86.04
75747;BME280;64363;52.198;21.020;2023-04-15T09:45:23;99678.22;;;11.80;85.60
75747;BME280;64363;52.198;21.020;2023-04-15T09:47:48;99678.88;;;11.85;85.48
75747;BME280;64363;52.198;21.020;2023-04-15T09:50:18;99689.13;;;11.94;84.34
75747;BME280;64363;52.198;21.020;2023-04-15T09:52:45;99683.84;;;11.93;85.36
75747;BME280;64363;52.198;21.020;2023-04-15T09:55:12;99683.69;;;11.96;84.55
75747;BME280;64363;52.198;21.020;2023-04-15T09:57:38;99695.56;;;11.90;84.91
75747;BME280;64363;52.198;21.020;2023-04-15T10:00:07;99694.13;;;11.83;84.32
75747;BME280;64363;52.198;21.020;2023-04-15T10:02:36;99692.22;;;11.85;85.10
75747;BME280;64363;52.198;21.020;2023-04-15T10:05:02;99698.06;;;11.93;84.69
75747;BME280;64363;52.198;21.020;2023-04-15T10:07:28;99698.72;;;11.98;83.96
75747;BME280;64363;52.198;21.020;2023-04-15T10:09:55;99693.53;;;11.95;85.06
75747;BME280;64363;52.198;21.020;2023-04-15T10:12:21;99690.56;;;12.01;84.46
75747;BME280;64363;52.198;21.020;2023-04-15T10:14:52;99696.31;;;12.11;84.20
75747;BME280;64363;52.198;21.020;2023-04-15T10:17:21;99693.44;;;12.15;83.62
75747;BME280;64363;52.198;21.020;2023-04-15T10:19:48;99692.34;;;12.19;84.20
75747;BME280;64363;52.198;21.020;2023-04-15T10:22:14;99693.44;;;12.15;84.74
75747;BME280;64363;52.198;21.020;2023-04-15T10:24:40;99688.09;;;12.15;85.16
75747;BME280;64363;52.198;21.020;2023-04-15T10:27:08;99691.97;;;12.08;83.99
75747;BME280;64363;52.198;21.020;2023-04-15T10:29:34;99693.44;;;12.15;84.59
75747;BME280;64363;52.198;21.020;2023-04-15T10:32:01;99688.38;;;12.09;84.71
75747;BME280;64363;52.198;21.020;2023-04-15T10:34:28;99693.72;;;12.09;86.20
75747;BME280;64363;52.198;21.020;2023-04-15T10:36:57;99691.53;;;12.17;84.33
75747;BME280;64363;52.198;21.020;2023-04-15T10:42:16;99697.91;;;12.15;84.09
75747;BME280;64363;52.198;21.020;2023-04-15T10:44:47;99702.22;;;12.17;84.44
75747;BME280;64363;52.198;21.020;2023-04-15T10:47:15;99701.28;;;12.18;84.47
75747;BME280;64363;52.198;21.020;2023-04-15T10:49:48;99702.34;;;12.33;84.46
75747;BME280;64363;52.198;21.020;2023-04-15T10:52:16;99701.94;;;12.41;84.19
75747;BME280;64363;52.198;21.020;2023-04-15T10:54:43;99700.59;;;12.32;84.39
75747;BME280;64363;52.198;21.020;2023-04-15T10:57:15;99699.72;;;12.14;84.79
75747;BME280;64363;52.198;21.020;2023-04-15T11:05:15;99709.72;;;12.28;84.57
75747;BME280;64363;52.198;21.020;2023-04-15T11:07:53;99704.94;;;12.35;84.32
75747;BME280;64363;52.198;21.020;2023-04-15T11:18:13;99703.44;;;12.29;84.49
75747;BME280;64363;52.198;21.020;2023-04-15T11:20:59;99706.72;;;11.98;84.86
75747;BME280;64363;52.198;21.020;2023-04-15T11:23:38;99708.31;;;11.84;85.34
75747;BME280;64363;52.198;21.020;2023-04-15T11:26:08;99704.13;;;11.97;85.85
75747;BME280;64363;52.198;21.020;2023-04-15T11:28:38;99708.47;;;11.99;85.30
75747;BME280;64363;52.198;21.020;2023-04-15T11:31:13;99706.31;;;12.07;84.77
75747;BME280;64363;52.198;21.020;2023-04-15T11:33:58;99714.06;;;12.12;83.66
75747;BME280;64363;52.198;21.020;2023-04-15T11:36:29;99717.53;;;12.14;84.18
75747;BME280;64363;52.198;21.020;2023-04-15T11:38:57;99720.75;;;12.03;83.47
75747;BME280;64363;52.198;21.020;2023-04-15T11:41:23;99717.22;;;12.20;84.22
75747;BME280;64363;52.198;21.020;2023-04-15T11:43:50;99719.13;;;12.18;83.39
75747;BME280;64363;52.198;21.020;2023-04-15T11:46:16;99715.94;;;12.29;83.16
75747;BME280;64363;52.198;21.020;2023-04-15T11:48:43;99725.25;;;12.39;83.17
75747;BME280;64363;52.198;21.020;2023-04-15T11:51:10;99712.03;;;12.53;83.13
75747;BME280;64363;52.198;21.020;2023-04-15T11:56:09;99722.91;;;13.01;82.54
75747;BME280;64363;52.198;21.020;2023-04-15T11:58:36;99731.28;;;12.95;81.94
75747;BME280;64363;52.198;21.020;2023-04-15T12:01:04;99727.03;;;12.91;82.60
75747;BME280;64363;52.198;21.020;2023-04-15T12:03:36;99730.47;;;12.93;82.61
75747;BME280;64363;52.198;21.020;2023-04-15T12:06:12;99729.59;;;12.93;83.32
75747;BME280;64363;52.198;21.020;2023-04-15T12:13:57;99740.16;;;12.79;83.40
75747;BME280;64363;52.198;21.020;2023-04-15T12:16:23;99747.28;;;12.61;84.14
75747;BME280;64363;52.198;21.020;2023-04-15T12:18:50;99742.41;;;12.69;83.95
75747;BME280;64363;52.198;21.020;2023-04-15T12:21:19;99750.94;;;12.77;84.09
75747;BME280;64363;52.198;21.020;2023-04-15T12:23:49;99752.34;;;12.84;83.70
75747;BME280;64363;52.198;21.020;2023-04-15T12:26:24;99749.63;;;13.03;82.13
75747;BME280;64363;52.198;21.020;2023-04-15T12:28:53;99755.22;;;13.16;81.88
75747;BME280;64363;52.198;21.020;2023-04-15T12:31:21;99758.34;;;12.89;80.79
75747;BME280;64363;52.198;21.020;2023-04-15T12:33:48;99757.16;;;12.95;82.25
75747;BME280;64363;52.198;21.020;2023-04-15T12:36:14;99755.13;;;12.83;83.58
75747;BME280;64363;52.198;21.020;2023-04-15T12:38:40;99770.28;;;12.82;81.55
75747;BME280;64363;52.198;21.020;2023-04-15T12:41:06;99764.97;;;12.99;81.33
75747;BME280;64363;52.198;21.020;2023-04-15T12:43:32;99766.19;;;12.92;81.07
75747;BME280;64363;52.198;21.020;2023-04-15T12:45:58;99768.28;;;13.22;81.63
75747;BME280;64363;52.198;21.020;2023-04-15T12:48:23;99767.38;;;13.55;82.01
75747;BME280;64363;52.198;21.020;2023-04-15T12:50:49;99770.09;;;13.71;80.85
75747;BME280;64363;52.198;21.020;2023-04-15T12:53:15;99767.69;;;13.82;78.10
75747;BME280;64363;52.198;21.020;2023-04-15T12:55:41;99775.75;;;13.82;75.89
75747;BME280;64363;52.198;21.020;2023-04-15T12:58:07;99772.81;;;13.87;73.98
75747;BME280;64363;52.198;21.020;2023-04-15T13:00:33;99778.63;;;13.95;75.38
75747;BME280;64363;52.198;21.020;2023-04-15T13:02:59;99790.31;;;14.10;75.28
75747;BME280;64363;52.198;21.020;2023-04-15T13:05:25;99781.13;;;14.29;74.43
75747;BME280;64363;52.198;21.020;2023-04-15T13:07:51;99780.03;;;14.49;74.23
75747;BME280;64363;52.198;21.020;2023-04-15T13:10:17;99784.19;;;14.70;73.64
75747;BME280;64363;52.198;21.020;2023-04-15T13:12:42;99778.22;;;15.11;73.81
75747;BME280;64363;52.198;21.020;2023-04-15T13:15:11;99779.50;;;15.77;70.82
75747;BME280;64363;52.198;21.020;2023-04-15T13:17:37;99780.88;;;16.39;66.65
75747;BME280;64363;52.198;21.020;2023-04-15T13:20:03;99796.66;;;16.31;64.62
75747;BME280;64363;52.198;21.020;2023-04-15T13:22:29;99794.47;;;15.81;64.83
75747;BME280;64363;52.198;21.020;2023-04-15T13:24:55;99804.94;;;15.28;64.79
75747;BME280;64363;52.198;21.020;2023-04-15T13:27:20;99806.94;;;14.79;67.81
75747;BME280;64363;52.198;21.020;2023-04-15T13:29:46;99799.50;;;14.37;70.62
75747;BME280;64363;52.198;21.020;2023-04-15T13:32:12;99799.84;;;14.31;73.12
75747;BME280;64363;52.198;21.020;2023-04-15T13:34:38;99801.44;;;14.35;72.89
75747;BME280;64363;52.198;21.020;2023-04-15T13:37:07;99802.75;;;14.89;72.83
75747;BME280;64363;52.198;21.020;2023-04-15T13:39:34;99808.47;;;14.98;71.58
75747;BME280;64363;52.198;21.020;2023-04-15T13:41:59;99809.97;;;14.73;73.92
75747;BME280;64363;52.198;21.020;2023-04-15T13:44:25;99807.66;;;14.51;71.28
75747;BME280;64363;52.198;21.020;2023-04-15T13:46:51;99808.44;;;14.37;72.27
75747;BME280;64363;52.198;21.020;2023-04-15T13:49:17;99818.41;;;14.35;71.94
75747;BME280;64363;52.198;21.020;2023-04-15T13:51:43;99814.19;;;14.30;71.97
75747;BME280;64363;52.198;21.020;2023-04-15T13:54:08;99811.44;;;14.31;71.34
75747;BME280;64363;52.198;21.020;2023-04-15T13:56:34;99821.47;;;13.79;71.83
75747;BME280;64363;52.198;21.020;2023-04-15T13:59:01;99815.47;;;13.74;71.98
75747;BME280;64363;52.198;21.020;2023-04-15T14:01:28;99820.56;;;13.96;73.20
75747;BME280;64363;52.198;21.020;2023-04-15T14:03:54;99819.84;;;13.92;72.97
75747;BME280;64363;52.198;21.020;2023-04-15T14:06:20;99821.25;;;13.99;72.64
75747;BME280;64363;52.198;21.020;2023-04-15T14:08:45;99819.53;;;13.98;72.91
75747;BME280;64363;52.198;21.020;2023-04-15T14:11:11;99818.00;;;14.26;73.19
75747;BME280;64363;52.198;21.020;2023-04-15T14:13:37;99823.34;;;14.26;72.22
75747;BME280;64363;52.198;21.020;2023-04-15T14:16:03;99830.09;;;14.33;71.80
75747;BME280;64363;52.198;21.020;2023-04-15T14:18:29;99830.63;;;14.24;71.08
75747;BME280;64363;52.198;21.020;2023-04-15T14:20:55;99830.88;;;14.19;70.41
75747;BME280;64363;52.198;21.020;2023-04-15T14:23:22;99831.47;;;14.08;71.41
75747;BME280;64363;52.198;21.020;2023-04-15T14:25:47;99832.13;;;13.96;72.03
75747;BME280;64363;52.198;21.020;2023-04-15T14:28:13;99831.34;;;13.94;72.47
75747;BME280;64363;52.198;21.020;2023-04-15T14:30:39;99823.53;;;13.57;73.68
75747;BME280;64363;52.198;21.020;2023-04-15T14:33:06;99837.25;;;13.51;73.66
75747;BME280;64363;52.198;21.020;2023-04-15T14:35:32;99833.47;;;13.38;74.48
75747;BME280;64363;52.198;21.020;2023-04-15T14:37:58;99836.78;;;13.43;74.97
75747;BME280;64363;52.198;21.020;2023-04-15T14:40:23;99831.09;;;13.66;74.36
75747;BME280;64363;52.198;21.020;2023-04-15T14:42:49;99837.50;;;13.64;74.02
75747;BME280;64363;52.198;21.020;2023-04-15T14:45:15;99837.97;;;13.54;74.66
75747;BME280;64363;52.198;21.020;2023-04-15T14:47:42;99837.19;;;13.35;74.94
75747;BME280;64363;52.198;21.020;2023-04-15T14:50:08;99840.41;;;13.42;74.30
75747;BME280;64363;52.198;21.020;2023-04-15T14:52:34;99848.22;;;13.64;74.27
75747;BME280;64363;52.198;21.020;2023-04-15T14:55:07;99844.09;;;14.06;73.66
75747;BME280;64363;52.198;21.020;2023-04-15T14:57:36;99842.38;;;14.54;69.46
75747;BME280;64363;52.198;21.020;2023-04-15T15:00:03;99853.34;;;14.65;68.26
75747;BME280;64363;52.198;21.020;2023-04-15T15:02:29;99852.94;;;15.18;68.05
75747;BME280;64363;52.198;21.020;2023-04-15T15:04:55;99853.28;;;15.28;68.25
75747;BME280;64363;52.198;21.020;2023-04-15T15:07:22;99853.44;;;15.40;66.83
75747;BME280;64363;52.198;21.020;2023-04-15T15:09:48;99861.38;;;15.42;67.31
75747;BME280;64363;52.198;21.020;2023-04-15T15:12:14;99872.41;;;15.67;66.71
75747;BME280;64363;52.198;21.020;2023-04-15T15:14:39;99857.91;;;16.83;61.18
75747;BME280;64363;52.198;21.020;2023-04-15T15:17:05;99860.72;;;17.08;59.93
75747;BME280;64363;52.198;21.020;2023-04-15T15:19:31;99858.56;;;17.40;60.08
75747;BME280;64363;52.198;21.020;2023-04-15T15:21:56;99864.38;;;16.80;61.07
75747;BME280;64363;52.198;21.020;2023-04-15T15:24:22;99865.25;;;16.10;60.95
75747;BME280;64363;52.198;21.020;2023-04-15T15:26:48;99869.56;;;15.25;63.43
75747;BME280;64363;52.198;21.020;2023-04-15T15:29:14;99864.16;;;14.95;63.63
75747;BME280;64363;52.198;21.020;2023-04-15T15:31:39;99866.06;;;16.96;58.91
75747;BME280;64363;52.198;21.020;2023-04-15T15:34:05;99864.78;;;17.67;56.81
75747;BME280;64363;52.198;21.020;2023-04-15T15:36:31;99869.75;;;17.07;57.49
75747;BME280;64363;52.198;21.020;2023-04-15T15:38:57;99867.81;;;17.09;57.92
75747;BME280;64363;52.198;21.020;2023-04-15T15:41:24;99870.34;;;16.29;59.71
75747;BME280;64363;52.198;21.020;2023-04-15T15:43:50;99873.03;;;15.72;62.14
75747;BME280;64363;52.198;21.020;2023-04-15T15:46:16;99875.94;;;15.38;63.13
75747;BME280;64363;52.198;21.020;2023-04-15T15:48:42;99870.03;;;15.02;63.31
75747;BME280;64363;52.198;21.020;2023-04-15T15:51:08;99880.34;;;14.62;65.12
75747;BME280;64363;52.198;21.020;2023-04-15T15:53:34;99875.69;;;14.66;64.95
75747;BME280;64363;52.198;21.020;2023-04-15T15:56:00;99879.22;;;15.59;62.23
75747;BME280;64363;52.198;21.020;2023-04-15T15:58:29;99871.59;;;16.80;57.76